Terminal Aerodrome Forecast
Issued by NWS

Home | Current Version | Previous Version | Text Only | Print | Product List | Glossary On
Versions: 1 2 3 4 5 6 7 8 9 10 11 12 13 14 15 16 17 18 19 20 21 22 23 24 25 26 27 28 29 30 31
000
FTUS46 KSEW 010500
TAFSEA
TAF
KSEA 010525Z 0106/0212 36006KT P6SM SCT050 OVC100
     FM011200 14005KT P6SM -RA SCT035 OVC050
     FM011800 18008KT P6SM -RA SCT020 OVC035
     FM012000 20008KT 5SM -RA BR OVC020
     FM020000 20008KT P6SM BKN020 OVC040=

USA.gov is the U.S. government's official web portal to all federal, state and local government web resources and services.